Bloomdale, Ohio
Current Conditions -  °F | °C
As of 10:53 AM on Saturday 22 Nov 2014 (Local Time) from KFDY Reporting Station
Overcast Overcast  
Wind Chill: 35°   Ceiling: 5000
Heat Index: 42°   Visibility: 10mi
Dew Point: 36°   Wind: 15mph
Humidity: 79%   Direction: 200°SSW
Pressure: 30.13"   Gusts: NA
Location:  41.17°N, 83.56°W
Report Text: KFDY 221553Z AUTO 20013KT 10SM BKN050 OVC060 06/02 A3013 RMK AO2 SLP207 T00560022
Loading
Personal Weather Stations






























Interactive Weather Map New forecast layout! Learn more

10-Day Weather Forecast

Advertisements
Track Severe Weather on mobile